sensor_id;sensor_type;location;lat;lon;timestamp;temperature;humidity
13742;DHT22;8461;52.356;10.704;2023-11-19T00:01:32;5.50;99.90
13742;DHT22;8461;52.356;10.704;2023-11-19T00:03:58;5.50;99.90
13742;DHT22;8461;52.356;10.704;2023-11-19T00:06:24;5.50;99.90
13742;DHT22;8461;52.356;10.704;2023-11-19T00:08:50;5.60;99.90
13742;DHT22;8461;52.356;10.704;2023-11-19T00:11:16;5.60;99.90
13742;DHT22;8461;52.356;10.704;2023-11-19T00:13:42;5.60;99.90
13742;DHT22;8461;52.356;10.704;2023-11-19T00:16:07;5.60;99.90
13742;DHT22;8461;52.356;10.704;2023-11-19T00:18:35;5.60;99.90
13742;DHT22;8461;52.356;10.704;2023-11-19T00:21:01;5.60;99.90
13742;DHT22;8461;52.356;10.704;2023-11-19T00:23:28;5.60;99.90
13742;DHT22;8461;52.356;10.704;2023-11-19T00:25:53;5.60;99.90
13742;DHT22;8461;52.356;10.704;2023-11-19T00:28:19;5.60;99.90
13742;DHT22;8461;52.356;10.704;2023-11-19T00:30:44;5.60;99.90
13742;DHT22;8461;52.356;10.704;2023-11-19T00:33:10;5.60;99.90
13742;DHT22;8461;52.356;10.704;2023-11-19T00:35:35;5.60;99.90
13742;DHT22;8461;52.356;10.704;2023-11-19T00:38:01;5.60;99.90
13742;DHT22;8461;52.356;10.704;2023-11-19T00:40:28;5.60;99.90
13742;DHT22;8461;52.356;10.704;2023-11-19T00:42:54;5.70;99.90
13742;DHT22;8461;52.356;10.704;2023-11-19T00:45:19;5.70;99.90
13742;DHT22;8461;52.356;10.704;2023-11-19T00:47:45;5.80;99.90
13742;DHT22;8461;52.356;10.704;2023-11-19T00:50:11;5.70;99.90
13742;DHT22;8461;52.356;10.704;2023-11-19T00:52:39;5.80;99.90
13742;DHT22;8461;52.356;10.704;2023-11-19T00:55:05;5.90;99.90
13742;DHT22;8461;52.356;10.704;2023-11-19T00:57:34;5.90;99.90
13742;DHT22;8461;52.356;10.704;2023-11-19T01:00:00;5.90;99.90
13742;DHT22;8461;52.356;10.704;2023-11-19T01:02:26;6.00;99.90
13742;DHT22;8461;52.356;10.704;2023-11-19T01:04:52;6.00;99.90
13742;DHT22;8461;52.356;10.704;2023-11-19T01:07:17;6.00;99.90
13742;DHT22;8461;52.356;10.704;2023-11-19T01:09:43;6.00;99.90
13742;DHT22;8461;52.356;10.704;2023-11-19T01:12:09;6.00;99.90
13742;DHT22;8461;52.356;10.704;2023-11-19T01:14:36;6.00;99.90
13742;DHT22;8461;52.356;10.704;2023-11-19T01:17:01;6.00;99.90
13742;DHT22;8461;52.356;10.704;2023-11-19T01:19:27;6.00;99.90
13742;DHT22;8461;52.356;10.704;2023-11-19T01:21:54;5.90;99.90
13742;DHT22;8461;52.356;10.704;2023-11-19T01:24:19;6.00;99.90
13742;DHT22;8461;52.356;10.704;2023-11-19T01:26:45;6.00;99.90
13742;DHT22;8461;52.356;10.704;2023-11-19T01:29:12;6.00;99.90
13742;DHT22;8461;52.356;10.704;2023-11-19T01:31:40;6.00;99.90
13742;DHT22;8461;52.356;10.704;2023-11-19T01:34:05;6.00;99.90
13742;DHT22;8461;52.356;10.704;2023-11-19T01:36:31;6.10;99.90
13742;DHT22;8461;52.356;10.704;2023-11-19T01:38:56;6.00;99.90
13742;DHT22;8461;52.356;10.704;2023-11-19T01:41:22;6.00;99.90
13742;DHT22;8461;52.356;10.704;2023-11-19T01:43:47;6.10;99.90
13742;DHT22;8461;52.356;10.704;2023-11-19T01:46:13;6.10;99.90
13742;DHT22;8461;52.356;10.704;2023-11-19T01:48:44;6.10;99.90
13742;DHT22;8461;52.356;10.704;2023-11-19T01:51:14;6.10;99.90
13742;DHT22;8461;52.356;10.704;2023-11-19T01:53:42;6.10;99.90
13742;DHT22;8461;52.356;10.704;2023-11-19T01:56:09;6.10;99.90
13742;DHT22;8461;52.356;10.704;2023-11-19T01:58:37;6.20;99.90
13742;DHT22;8461;52.356;10.704;2023-11-19T02:01:05;6.20;99.90
13742;DHT22;8461;52.356;10.704;2023-11-19T02:03:34;6.20;99.90
13742;DHT22;8461;52.356;10.704;2023-11-19T02:06:00;6.20;99.90
13742;DHT22;8461;52.356;10.704;2023-11-19T02:08:26;6.10;99.90
13742;DHT22;8461;52.356;10.704;2023-11-19T02:10:52;6.10;99.90
13742;DHT22;8461;52.356;10.704;2023-11-19T02:13:20;6.10;99.90
13742;DHT22;8461;52.356;10.704;2023-11-19T02:15:46;6.20;99.90
13742;DHT22;8461;52.356;10.704;2023-11-19T02:18:25;6.20;99.90
13742;DHT22;8461;52.356;10.704;2023-11-19T02:20:56;6.30;99.90
13742;DHT22;8461;52.356;10.704;2023-11-19T02:23:22;6.30;99.90
13742;DHT22;8461;52.356;10.704;2023-11-19T02:28:49;6.30;99.90
13742;DHT22;8461;52.356;10.704;2023-11-19T02:31:15;6.30;99.90
13742;DHT22;8461;52.356;10.704;2023-11-19T02:33:40;6.30;99.90
13742;DHT22;8461;52.356;10.704;2023-11-19T02:36:07;6.40;99.90
13742;DHT22;8461;52.356;10.704;2023-11-19T02:38:34;6.40;99.90
13742;DHT22;8461;52.356;10.704;2023-11-19T02:41:01;6.50;99.90
13742;DHT22;8461;52.356;10.704;2023-11-19T02:43:27;6.60;99.90
13742;DHT22;8461;52.356;10.704;2023-11-19T02:45:53;6.60;99.90
13742;DHT22;8461;52.356;10.704;2023-11-19T02:48:21;6.60;99.90
13742;DHT22;8461;52.356;10.704;2023-11-19T02:50:46;6.70;99.90
13742;DHT22;8461;52.356;10.704;2023-11-19T02:53:13;6.80;99.90
13742;DHT22;8461;52.356;10.704;2023-11-19T02:55:38;6.80;99.90
13742;DHT22;8461;52.356;10.704;2023-11-19T02:58:06;6.80;99.90
13742;DHT22;8461;52.356;10.704;2023-11-19T03:00:35;6.90;99.90
13742;DHT22;8461;52.356;10.704;2023-11-19T03:03:12;7.00;99.90
13742;DHT22;8461;52.356;10.704;2023-11-19T03:05:49;7.00;99.90
13742;DHT22;8461;52.356;10.704;2023-11-19T03:08:18;7.00;99.90
13742;DHT22;8461;52.356;10.704;2023-11-19T03:10:43;7.10;99.90
13742;DHT22;8461;52.356;10.704;2023-11-19T03:13:13;7.10;99.90
13742;DHT22;8461;52.356;10.704;2023-11-19T03:15:42;7.10;99.90
13742;DHT22;8461;52.356;10.704;2023-11-19T03:18:08;7.20;99.90
13742;DHT22;8461;52.356;10.704;2023-11-19T03:20:33;7.20;99.90
13742;DHT22;8461;52.356;10.704;2023-11-19T03:22:59;7.30;99.90
13742;DHT22;8461;52.356;10.704;2023-11-19T03:25:27;7.40;99.90
13742;DHT22;8461;52.356;10.704;2023-11-19T03:27:52;7.40;99.90
13742;DHT22;8461;52.356;10.704;2023-11-19T03:30:18;7.50;99.90
13742;DHT22;8461;52.356;10.704;2023-11-19T03:32:46;7.50;99.90
13742;DHT22;8461;52.356;10.704;2023-11-19T03:35:11;7.60;99.90
13742;DHT22;8461;52.356;10.704;2023-11-19T03:37:37;7.60;99.90
13742;DHT22;8461;52.356;10.704;2023-11-19T03:40:03;7.70;99.90
13742;DHT22;8461;52.356;10.704;2023-11-19T03:42:29;7.80;99.90
13742;DHT22;8461;52.356;10.704;2023-11-19T03:44:58;7.80;99.90
13742;DHT22;8461;52.356;10.704;2023-11-19T03:47:24;7.80;99.90
13742;DHT22;8461;52.356;10.704;2023-11-19T03:49:50;7.80;99.90
13742;DHT22;8461;52.356;10.704;2023-11-19T03:52:17;7.80;99.90
13742;DHT22;8461;52.356;10.704;2023-11-19T03:54:43;7.80;99.90
13742;DHT22;8461;52.356;10.704;2023-11-19T03:57:09;7.90;99.90
13742;DHT22;8461;52.356;10.704;2023-11-19T03:59:36;7.90;99.90
13742;DHT22;8461;52.356;10.704;2023-11-19T04:02:02;7.90;99.90
13742;DHT22;8461;52.356;10.704;2023-11-19T04:04:28;7.90;99.90
13742;DHT22;8461;52.356;10.704;2023-11-19T04:06:55;7.90;99.90
13742;DHT22;8461;52.356;10.704;2023-11-19T04:09:21;8.00;99.90
13742;DHT22;8461;52.356;10.704;2023-11-19T04:11:46;8.00;99.90
13742;DHT22;8461;52.356;10.704;2023-11-19T04:14:13;8.00;99.90
13742;DHT22;8461;52.356;10.704;2023-11-19T04:16:39;8.00;99.90
13742;DHT22;8461;52.356;10.704;2023-11-19T04:19:04;8.10;99.90
13742;DHT22;8461;52.356;10.704;2023-11-19T04:21:30;8.10;99.90
13742;DHT22;8461;52.356;10.704;2023-11-19T04:23:56;8.10;99.90
13742;DHT22;8461;52.356;10.704;2023-11-19T04:26:21;8.10;99.90
13742;DHT22;8461;52.356;10.704;2023-11-19T04:28:47;8.20;99.90
13742;DHT22;8461;52.356;10.704;2023-11-19T04:31:17;8.20;99.90
13742;DHT22;8461;52.356;10.704;2023-11-19T04:33:43;8.20;99.90
13742;DHT22;8461;52.356;10.704;2023-11-19T04:36:10;8.20;99.90
13742;DHT22;8461;52.356;10.704;2023-11-19T04:38:35;8.30;99.90
13742;DHT22;8461;52.356;10.704;2023-11-19T04:41:01;8.30;99.90
13742;DHT22;8461;52.356;10.704;2023-11-19T04:43:27;8.30;99.90
13742;DHT22;8461;52.356;10.704;2023-11-19T04:45:53;8.40;99.90
13742;DHT22;8461;52.356;10.704;2023-11-19T04:48:19;8.40;99.90
13742;DHT22;8461;52.356;10.704;2023-11-19T04:50:44;8.50;99.90
13742;DHT22;8461;52.356;10.704;2023-11-19T04:53:10;8.60;99.90
13742;DHT22;8461;52.356;10.704;2023-11-19T04:55:35;8.60;99.90
13742;DHT22;8461;52.356;10.704;2023-11-19T04:58:01;8.70;99.90
13742;DHT22;8461;52.356;10.704;2023-11-19T05:00:26;8.70;99.90
13742;DHT22;8461;52.356;10.704;2023-11-19T05:02:52;8.70;99.90
13742;DHT22;8461;52.356;10.704;2023-11-19T05:05:17;8.70;99.90
13742;DHT22;8461;52.356;10.704;2023-11-19T05:07:43;8.70;99.90
13742;DHT22;8461;52.356;10.704;2023-11-19T05:10:09;8.80;99.90
13742;DHT22;8461;52.356;10.704;2023-11-19T05:12:35;8.80;99.90
13742;DHT22;8461;52.356;10.704;2023-11-19T05:15:00;8.90;99.90
13742;DHT22;8461;52.356;10.704;2023-11-19T05:17:26;8.90;99.90
13742;DHT22;8461;52.356;10.704;2023-11-19T05:19:52;8.90;99.90
13742;DHT22;8461;52.356;10.704;2023-11-19T05:22:17;9.00;99.90
13742;DHT22;8461;52.356;10.704;2023-11-19T05:24:43;9.00;99.90
13742;DHT22;8461;52.356;10.704;2023-11-19T05:27:09;9.10;99.90
13742;DHT22;8461;52.356;10.704;2023-11-19T05:29:36;9.10;99.90
13742;DHT22;8461;52.356;10.704;2023-11-19T05:32:04;9.00;99.90
13742;DHT22;8461;52.356;10.704;2023-11-19T05:34:30;9.00;99.90
13742;DHT22;8461;52.356;10.704;2023-11-19T05:36:56;9.00;99.90
13742;DHT22;8461;52.356;10.704;2023-11-19T05:39:22;9.00;99.90
13742;DHT22;8461;52.356;10.704;2023-11-19T05:41:48;9.10;99.90
13742;DHT22;8461;52.356;10.704;2023-11-19T05:44:13;9.10;99.90
13742;DHT22;8461;52.356;10.704;2023-11-19T05:46:39;9.00;99.90
13742;DHT22;8461;52.356;10.704;2023-11-19T05:49:08;9.10;99.90
13742;DHT22;8461;52.356;10.704;2023-11-19T05:51:39;9.10;99.90
13742;DHT22;8461;52.356;10.704;2023-11-19T05:54:09;9.10;99.90
13742;DHT22;8461;52.356;10.704;2023-11-19T05:56:35;9.10;99.90
13742;DHT22;8461;52.356;10.704;2023-11-19T05:59:01;9.20;99.90
13742;DHT22;8461;52.356;10.704;2023-11-19T06:01:29;9.20;99.90
13742;DHT22;8461;52.356;10.704;2023-11-19T06:03:54;9.20;99.90
13742;DHT22;8461;52.356;10.704;2023-11-19T06:06:20;9.20;99.90
13742;DHT22;8461;52.356;10.704;2023-11-19T06:08:46;9.30;99.90
13742;DHT22;8461;52.356;10.704;2023-11-19T06:11:12;9.20;99.90
13742;DHT22;8461;52.356;10.704;2023-11-19T06:13:44;9.20;99.90
13742;DHT22;8461;52.356;10.704;2023-11-19T06:16:10;9.20;99.90
13742;DHT22;8461;52.356;10.704;2023-11-19T06:18:38;9.20;99.90
13742;DHT22;8461;52.356;10.704;2023-11-19T06:21:04;9.30;99.90
13742;DHT22;8461;52.356;10.704;2023-11-19T06:23:29;9.30;99.90
13742;DHT22;8461;52.356;10.704;2023-11-19T06:25:55;9.20;99.90
13742;DHT22;8461;52.356;10.704;2023-11-19T06:28:20;9.20;99.90
13742;DHT22;8461;52.356;10.704;2023-11-19T06:33:15;9.20;99.90
13742;DHT22;8461;52.356;10.704;2023-11-19T06:35:40;9.20;99.90
13742;DHT22;8461;52.356;10.704;2023-11-19T06:38:06;9.10;99.90
13742;DHT22;8461;52.356;10.704;2023-11-19T06:40:32;9.20;99.90
13742;DHT22;8461;52.356;10.704;2023-11-19T06:42:58;9.20;99.90
13742;DHT22;8461;52.356;10.704;2023-11-19T06:45:24;9.20;99.90
13742;DHT22;8461;52.356;10.704;2023-11-19T06:47:49;9.10;99.90
13742;DHT22;8461;52.356;10.704;2023-11-19T06:50:15;9.10;99.90
13742;DHT22;8461;52.356;10.704;2023-11-19T06:52:41;9.10;99.90
13742;DHT22;8461;52.356;10.704;2023-11-19T06:55:07;9.10;99.90
13742;DHT22;8461;52.356;10.704;2023-11-19T06:57:33;9.00;99.90
13742;DHT22;8461;52.356;10.704;2023-11-19T06:59:58;9.00;99.90
13742;DHT22;8461;52.356;10.704;2023-11-19T07:02:24;9.10;99.90
13742;DHT22;8461;52.356;10.704;2023-11-19T07:04:51;9.10;99.90
13742;DHT22;8461;52.356;10.704;2023-11-19T07:07:16;9.10;99.90
13742;DHT22;8461;52.356;10.704;2023-11-19T07:09:42;9.10;99.90
13742;DHT22;8461;52.356;10.704;2023-11-19T07:12:08;9.10;99.90
13742;DHT22;8461;52.356;10.704;2023-11-19T07:14:34;9.10;99.90
13742;DHT22;8461;52.356;10.704;2023-11-19T07:16:59;9.20;99.90
13742;DHT22;8461;52.356;10.704;2023-11-19T07:19:25;9.20;99.90
13742;DHT22;8461;52.356;10.704;2023-11-19T07:29:15;9.50;99.90
13742;DHT22;8461;52.356;10.704;2023-11-19T07:31:42;9.50;99.90
13742;DHT22;8461;52.356;10.704;2023-11-19T07:34:09;9.70;99.90
13742;DHT22;8461;52.356;10.704;2023-11-19T07:36:36;9.60;99.90
13742;DHT22;8461;52.356;10.704;2023-11-19T07:39:01;9.60;99.90
13742;DHT22;8461;52.356;10.704;2023-11-19T16:37:24;9.80;99.90
13742;DHT22;8461;52.356;10.704;2023-11-19T16:39:49;9.90;99.90
13742;DHT22;8461;52.356;10.704;2023-11-19T16:42:15;9.80;99.90
13742;DHT22;8461;52.356;10.704;2023-11-19T16:44:43;9.80;99.90
13742;DHT22;8461;52.356;10.704;2023-11-19T16:47:09;9.80;99.90
13742;DHT22;8461;52.356;10.704;2023-11-19T16:49:34;9.80;99.90
13742;DHT22;8461;52.356;10.704;2023-11-19T16:52:00;9.80;99.90
13742;DHT22;8461;52.356;10.704;2023-11-19T16:54:26;9.80;99.90
13742;DHT22;8461;52.356;10.704;2023-11-19T16:56:51;9.80;99.90
13742;DHT22;8461;52.356;10.704;2023-11-19T16:59:17;9.80;99.90
13742;DHT22;8461;52.356;10.704;2023-11-19T17:01:42;9.80;99.90
13742;DHT22;8461;52.356;10.704;2023-11-19T17:04:09;9.70;99.90
13742;DHT22;8461;52.356;10.704;2023-11-19T17:06:37;9.70;99.90
13742;DHT22;8461;52.356;10.704;2023-11-19T17:09:03;9.70;99.90
13742;DHT22;8461;52.356;10.704;2023-11-19T17:11:29;9.70;99.90
13742;DHT22;8461;52.356;10.704;2023-11-19T17:13:55;9.70;99.90
13742;DHT22;8461;52.356;10.704;2023-11-19T17:16:21;9.70;99.90
13742;DHT22;8461;52.356;10.704;2023-11-19T17:18:47;9.70;99.90
13742;DHT22;8461;52.356;10.704;2023-11-19T17:21:12;9.70;99.90
13742;DHT22;8461;52.356;10.704;2023-11-19T17:23:38;9.70;99.90
13742;DHT22;8461;52.356;10.704;2023-11-19T17:26:05;9.70;99.90
13742;DHT22;8461;52.356;10.704;2023-11-19T17:28:31;9.70;99.90
13742;DHT22;8461;52.356;10.704;2023-11-19T17:30:59;9.70;99.90
13742;DHT22;8461;52.356;10.704;2023-11-19T17:33:25;9.60;99.90
13742;DHT22;8461;52.356;10.704;2023-11-19T17:35:51;9.60;99.90
13742;DHT22;8461;52.356;10.704;2023-11-19T17:38:16;9.60;99.90
13742;DHT22;8461;52.356;10.704;2023-11-19T17:40:42;9.60;99.90
13742;DHT22;8461;52.356;10.704;2023-11-19T17:43:08;9.60;99.90
13742;DHT22;8461;52.356;10.704;2023-11-19T17:45:33;9.60;99.90
13742;DHT22;8461;52.356;10.704;2023-11-19T17:48:01;9.70;99.90
13742;DHT22;8461;52.356;10.704;2023-11-19T17:50:27;9.70;99.90
13742;DHT22;8461;52.356;10.704;2023-11-19T17:52:52;9.70;99.90
13742;DHT22;8461;52.356;10.704;2023-11-19T17:55:19;9.70;99.90
13742;DHT22;8461;52.356;10.704;2023-11-19T17:57:45;9.60;99.90
13742;DHT22;8461;52.356;10.704;2023-11-19T18:00:12;9.70;99.90
13742;DHT22;8461;52.356;10.704;2023-11-19T18:02:41;9.60;99.90
13742;DHT22;8461;52.356;10.704;2023-11-19T18:05:10;9.60;99.90
13742;DHT22;8461;52.356;10.704;2023-11-19T18:07:36;9.70;99.90
13742;DHT22;8461;52.356;10.704;2023-11-19T18:10:03;9.70;99.90
13742;DHT22;8461;52.356;10.704;2023-11-19T18:12:29;9.70;99.90
13742;DHT22;8461;52.356;10.704;2023-11-19T18:14:54;9.70;99.90
13742;DHT22;8461;52.356;10.704;2023-11-19T18:17:20;9.60;99.90
13742;DHT22;8461;52.356;10.704;2023-11-19T18:19:45;9.70;99.90
13742;DHT22;8461;52.356;10.704;2023-11-19T18:22:11;9.60;99.90
13742;DHT22;8461;52.356;10.704;2023-11-19T18:24:37;9.60;99.90
13742;DHT22;8461;52.356;10.704;2023-11-19T18:27:04;9.60;99.90
13742;DHT22;8461;52.356;10.704;2023-11-19T18:29:29;9.60;99.90
13742;DHT22;8461;52.356;10.704;2023-11-19T18:31:55;9.60;99.90
13742;DHT22;8461;52.356;10.704;2023-11-19T18:34:20;9.60;99.90
13742;DHT22;8461;52.356;10.704;2023-11-19T18:36:46;9.60;99.90
13742;DHT22;8461;52.356;10.704;2023-11-19T18:39:12;9.60;99.90
13742;DHT22;8461;52.356;10.704;2023-11-19T18:41:38;9.60;99.90
13742;DHT22;8461;52.356;10.704;2023-11-19T18:44:05;9.60;99.90
13742;DHT22;8461;52.356;10.704;2023-11-19T18:46:34;9.60;99.90
13742;DHT22;8461;52.356;10.704;2023-11-19T18:49:00;9.50;99.90
13742;DHT22;8461;52.356;10.704;2023-11-19T18:51:30;9.60;99.90
13742;DHT22;8461;52.356;10.704;2023-11-19T18:53:56;9.60;99.90
13742;DHT22;8461;52.356;10.704;2023-11-19T18:56:23;9.60;99.90
13742;DHT22;8461;52.356;10.704;2023-11-19T18:58:48;9.60;99.90
13742;DHT22;8461;52.356;10.704;2023-11-19T19:01:14;9.60;99.90
13742;DHT22;8461;52.356;10.704;2023-11-19T19:03:41;9.60;99.90
13742;DHT22;8461;52.356;10.704;2023-11-19T19:06:07;9.60;99.90
13742;DHT22;8461;52.356;10.704;2023-11-19T19:08:33;9.60;99.90
13742;DHT22;8461;52.356;10.704;2023-11-19T19:10:59;9.60;99.90
13742;DHT22;8461;52.356;10.704;2023-11-19T19:13:25;9.60;99.90
13742;DHT22;8461;52.356;10.704;2023-11-19T19:15:51;9.60;99.90
13742;DHT22;8461;52.356;10.704;2023-11-19T19:18:17;9.60;99.90
13742;DHT22;8461;52.356;10.704;2023-11-19T19:20:43;9.60;99.90
13742;DHT22;8461;52.356;10.704;2023-11-19T19:23:09;9.70;99.90
13742;DHT22;8461;52.356;10.704;2023-11-19T19:25:35;9.70;99.90
13742;DHT22;8461;52.356;10.704;2023-11-19T19:28:01;9.70;99.90
13742;DHT22;8461;52.356;10.704;2023-11-19T19:30:26;9.70;99.90
13742;DHT22;8461;52.356;10.704;2023-11-19T19:32:52;9.70;99.90
13742;DHT22;8461;52.356;10.704;2023-11-19T19:35:18;9.70;99.90
13742;DHT22;8461;52.356;10.704;2023-11-19T19:37:44;9.70;99.90
13742;DHT22;8461;52.356;10.704;2023-11-19T19:40:11;9.80;99.90
13742;DHT22;8461;52.356;10.704;2023-11-19T19:42:38;9.70;99.90
13742;DHT22;8461;52.356;10.704;2023-11-19T19:45:05;9.70;99.90
13742;DHT22;8461;52.356;10.704;2023-11-19T19:47:30;9.70;99.90
13742;DHT22;8461;52.356;10.704;2023-11-19T19:49:56;9.70;99.90
13742;DHT22;8461;52.356;10.704;2023-11-19T19:52:23;9.70;99.90
13742;DHT22;8461;52.356;10.704;2023-11-19T19:54:49;9.70;99.90
13742;DHT22;8461;52.356;10.704;2023-11-19T19:57:14;9.70;99.90
13742;DHT22;8461;52.356;10.704;2023-11-19T19:59:40;9.70;99.90
13742;DHT22;8461;52.356;10.704;2023-11-19T20:02:06;9.60;99.90
13742;DHT22;8461;52.356;10.704;2023-11-19T20:04:32;9.60;99.90
13742;DHT22;8461;52.356;10.704;2023-11-19T20:06:58;9.60;99.90
13742;DHT22;8461;52.356;10.704;2023-11-19T20:09:23;9.60;99.90
13742;DHT22;8461;52.356;10.704;2023-11-19T20:11:49;9.60;99.90
13742;DHT22;8461;52.356;10.704;2023-11-19T20:14:17;9.60;99.90
13742;DHT22;8461;52.356;10.704;2023-11-19T20:16:48;9.60;99.90
13742;DHT22;8461;52.356;10.704;2023-11-19T20:19:13;9.60;99.90
13742;DHT22;8461;52.356;10.704;2023-11-19T20:21:39;9.60;99.90
13742;DHT22;8461;52.356;10.704;2023-11-19T20:24:05;9.60;99.90
13742;DHT22;8461;52.356;10.704;2023-11-19T20:26:31;9.60;99.90
13742;DHT22;8461;52.356;10.704;2023-11-19T20:28:56;9.60;99.90
13742;DHT22;8461;52.356;10.704;2023-11-19T20:31:22;9.60;99.90
13742;DHT22;8461;52.356;10.704;2023-11-19T20:33:47;9.60;99.90
13742;DHT22;8461;52.356;10.704;2023-11-19T20:36:14;9.60;99.90
13742;DHT22;8461;52.356;10.704;2023-11-19T20:38:41;9.60;99.90
13742;DHT22;8461;52.356;10.704;2023-11-19T20:41:06;9.60;99.90
13742;DHT22;8461;52.356;10.704;2023-11-19T20:43:32;9.60;99.90
13742;DHT22;8461;52.356;10.704;2023-11-19T20:45:57;9.60;99.90
13742;DHT22;8461;52.356;10.704;2023-11-19T20:48:24;9.60;99.90
13742;DHT22;8461;52.356;10.704;2023-11-19T20:50:50;9.60;99.90
13742;DHT22;8461;52.356;10.704;2023-11-19T20:53:16;9.60;99.90
13742;DHT22;8461;52.356;10.704;2023-11-19T20:55:41;9.60;99.90
13742;DHT22;8461;52.356;10.704;2023-11-19T20:58:10;9.60;99.90
13742;DHT22;8461;52.356;10.704;2023-11-19T21:00:36;9.60;99.90
13742;DHT22;8461;52.356;10.704;2023-11-19T21:03:08;9.50;99.90
13742;DHT22;8461;52.356;10.704;2023-11-19T21:05:34;9.50;99.90
13742;DHT22;8461;52.356;10.704;2023-11-19T21:08:01;9.50;99.90
13742;DHT22;8461;52.356;10.704;2023-11-19T21:10:27;9.50;99.90
13742;DHT22;8461;52.356;10.704;2023-11-19T21:12:53;9.50;99.90
13742;DHT22;8461;52.356;10.704;2023-11-19T21:15:18;9.50;99.90
13742;DHT22;8461;52.356;10.704;2023-11-19T21:17:45;9.40;99.90
13742;DHT22;8461;52.356;10.704;2023-11-19T21:20:11;9.40;99.90
13742;DHT22;8461;52.356;10.704;2023-11-19T21:22:37;9.40;99.90
13742;DHT22;8461;52.356;10.704;2023-11-19T21:25:03;9.40;99.90
13742;DHT22;8461;52.356;10.704;2023-11-19T21:27:29;9.40;99.90
13742;DHT22;8461;52.356;10.704;2023-11-19T21:29:55;9.40;99.90
13742;DHT22;8461;52.356;10.704;2023-11-19T21:32:22;9.40;99.90
13742;DHT22;8461;52.356;10.704;2023-11-19T21:34:48;9.30;99.90
13742;DHT22;8461;52.356;10.704;2023-11-19T21:37:13;9.30;99.90
13742;DHT22;8461;52.356;10.704;2023-11-19T21:39:39;9.30;99.90
13742;DHT22;8461;52.356;10.704;2023-11-19T21:42:05;9.30;99.90
13742;DHT22;8461;52.356;10.704;2023-11-19T21:44:31;9.30;99.90
13742;DHT22;8461;52.356;10.704;2023-11-19T21:46:56;9.30;99.90
13742;DHT22;8461;52.356;10.704;2023-11-19T21:49:23;9.30;99.90
13742;DHT22;8461;52.356;10.704;2023-11-19T21:51:49;9.40;99.90
13742;DHT22;8461;52.356;10.704;2023-11-19T21:54:15;9.40;99.90
13742;DHT22;8461;52.356;10.704;2023-11-19T21:56:41;9.40;99.90
13742;DHT22;8461;52.356;10.704;2023-11-19T21:59:06;9.50;99.90
13742;DHT22;8461;52.356;10.704;2023-11-19T22:01:32;9.50;99.90
13742;DHT22;8461;52.356;10.704;2023-11-19T22:03:57;9.50;99.90
13742;DHT22;8461;52.356;10.704;2023-11-19T22:06:23;9.50;99.90
13742;DHT22;8461;52.356;10.704;2023-11-19T22:08:49;9.50;99.90
13742;DHT22;8461;52.356;10.704;2023-11-19T22:11:14;9.50;99.90
13742;DHT22;8461;52.356;10.704;2023-11-19T22:13:40;9.50;99.90
13742;DHT22;8461;52.356;10.704;2023-11-19T22:16:06;9.50;99.90
13742;DHT22;8461;52.356;10.704;2023-11-19T22:18:35;9.50;99.90
13742;DHT22;8461;52.356;10.704;2023-11-19T22:21:01;9.50;99.90
13742;DHT22;8461;52.356;10.704;2023-11-19T22:23:27;9.40;99.90
13742;DHT22;8461;52.356;10.704;2023-11-19T22:25:53;9.50;99.90
13742;DHT22;8461;52.356;10.704;2023-11-19T22:28:19;9.50;99.90
13742;DHT22;8461;52.356;10.704;2023-11-19T22:30:44;9.50;99.90
13742;DHT22;8461;52.356;10.704;2023-11-19T22:33:10;9.50;99.90
13742;DHT22;8461;52.356;10.704;2023-11-19T22:35:36;9.50;99.90
13742;DHT22;8461;52.356;10.704;2023-11-19T22:38:01;9.50;99.90
13742;DHT22;8461;52.356;10.704;2023-11-19T22:40:27;9.50;99.90
13742;DHT22;8461;52.356;10.704;2023-11-19T22:42:52;9.50;99.90
13742;DHT22;8461;52.356;10.704;2023-11-19T22:45:18;9.50;99.90
13742;DHT22;8461;52.356;10.704;2023-11-19T22:47:44;9.50;99.90
13742;DHT22;8461;52.356;10.704;2023-11-19T22:50:09;9.50;99.90
13742;DHT22;8461;52.356;10.704;2023-11-19T22:52:36;9.50;99.90
13742;DHT22;8461;52.356;10.704;2023-11-19T22:55:02;9.50;99.90
13742;DHT22;8461;52.356;10.704;2023-11-19T22:57:28;9.50;99.90
13742;DHT22;8461;52.356;10.704;2023-11-19T22:59:54;9.50;99.90
13742;DHT22;8461;52.356;10.704;2023-11-19T23:02:19;9.50;99.90
13742;DHT22;8461;52.356;10.704;2023-11-19T23:04:45;9.50;99.90
13742;DHT22;8461;52.356;10.704;2023-11-19T23:07:10;9.50;99.90
13742;DHT22;8461;52.356;10.704;2023-11-19T23:09:36;9.50;99.90
13742;DHT22;8461;52.356;10.704;2023-11-19T23:12:04;9.40;99.90
13742;DHT22;8461;52.356;10.704;2023-11-19T23:14:30;9.40;99.90
13742;DHT22;8461;52.356;10.704;2023-11-19T23:16:55;9.40;99.90
13742;DHT22;8461;52.356;10.704;2023-11-19T23:19:21;9.40;99.90
13742;DHT22;8461;52.356;10.704;2023-11-19T23:21:46;9.40;99.90
13742;DHT22;8461;52.356;10.704;2023-11-19T23:24:13;9.40;99.90
13742;DHT22;8461;52.356;10.704;2023-11-19T23:26:38;9.40;99.90
13742;DHT22;8461;52.356;10.704;2023-11-19T23:29:06;9.40;99.90
13742;DHT22;8461;52.356;10.704;2023-11-19T23:31:33;9.40;99.90
13742;DHT22;8461;52.356;10.704;2023-11-19T23:34:00;9.40;99.90
13742;DHT22;8461;52.356;10.704;2023-11-19T23:36:26;9.40;99.90
13742;DHT22;8461;52.356;10.704;2023-11-19T23:38:52;9.40;99.90
13742;DHT22;8461;52.356;10.704;2023-11-19T23:41:19;9.40;99.90
13742;DHT22;8461;52.356;10.704;2023-11-19T23:43:45;9.40;99.90
13742;DHT22;8461;52.356;10.704;2023-11-19T23:46:12;9.40;99.90
13742;DHT22;8461;52.356;10.704;2023-11-19T23:48:38;9.40;99.90
13742;DHT22;8461;52.356;10.704;2023-11-19T23:51:04;9.40;99.90
13742;DHT22;8461;52.356;10.704;2023-11-19T23:53:30;9.40;99.90
13742;DHT22;8461;52.356;10.704;2023-11-19T23:55:56;9.40;99.90
13742;DHT22;8461;52.356;10.704;2023-11-19T23:58:21;9.40;99.90
